sensor_id;sensor_type;location;lat;lon;timestamp;pressure;altitude;pressure_sealevel;temperature;humidity
81372;BME280;70827;52.206;5.294;2023-12-22T00:01:13;100121.31;;;5.42;85.32
81372;BME280;70827;52.206;5.294;2023-12-22T00:03:39;100134.97;;;5.52;86.63
81372;BME280;70827;52.206;5.294;2023-12-22T00:06:05;100156.50;;;5.28;87.09
81372;BME280;70827;52.206;5.294;2023-12-22T00:08:30;100132.47;;;5.34;87.75
81372;BME280;70827;52.206;5.294;2023-12-22T00:10:56;100135.03;;;5.43;86.13
81372;BME280;70827;52.206;5.294;2023-12-22T00:13:21;100138.41;;;5.48;86.20
81372;BME280;70827;52.206;5.294;2023-12-22T00:15:49;100140.22;;;5.28;86.01
81372;BME280;70827;52.206;5.294;2023-12-22T00:18:15;100146.22;;;5.30;84.97
81372;BME280;70827;52.206;5.294;2023-12-22T00:20:41;100131.66;;;5.29;84.12
81372;BME280;70827;52.206;5.294;2023-12-22T00:23:06;100150.53;;;5.23;85.18
81372;BME280;70827;52.206;5.294;2023-12-22T00:25:32;100130.81;;;5.27;84.31
81372;BME280;70827;52.206;5.294;2023-12-22T00:27:57;100145.28;;;5.48;84.51
81372;BME280;70827;52.206;5.294;2023-12-22T00:30:23;100144.53;;;5.26;83.73
81372;BME280;70827;52.206;5.294;2023-12-22T00:32:51;100144.44;;;5.42;83.37
81372;BME280;70827;52.206;5.294;2023-12-22T00:35:17;100124.75;;;5.43;83.03
81372;BME280;70827;52.206;5.294;2023-12-22T00:37:42;100134.16;;;5.42;82.87
81372;BME280;70827;52.206;5.294;2023-12-22T00:40:09;100134.13;;;5.52;82.43
81372;BME280;70827;52.206;5.294;2023-12-22T00:42:35;100121.31;;;5.42;82.76
81372;BME280;70827;52.206;5.294;2023-12-22T00:45:00;100122.06;;;5.64;82.24
81372;BME280;70827;52.206;5.294;2023-12-22T00:47:26;100125.41;;;5.82;82.58
81372;BME280;70827;52.206;5.294;2023-12-22T00:49:54;100123.75;;;5.68;82.81
81372;BME280;70827;52.206;5.294;2023-12-22T00:52:20;100133.28;;;5.50;83.23
81372;BME280;70827;52.206;5.294;2023-12-22T00:54:45;100151.25;;;5.59;82.93
81372;BME280;70827;52.206;5.294;2023-12-22T00:57:11;100144.47;;;5.38;83.48
81372;BME280;70827;52.206;5.294;2023-12-22T00:59:37;100157.22;;;5.64;83.74
81372;BME280;70827;52.206;5.294;2023-12-22T01:02:02;100144.41;;;5.52;82.98
81372;BME280;70827;52.206;5.294;2023-12-22T01:04:28;100143.59;;;5.45;83.71
81372;BME280;70827;52.206;5.294;2023-12-22T01:06:56;100154.69;;;5.50;83.79
81372;BME280;70827;52.206;5.294;2023-12-22T01:09:22;100174.38;;;5.51;83.94
81372;BME280;70827;52.206;5.294;2023-12-22T01:11:47;100173.53;;;5.54;83.07
81372;BME280;70827;52.206;5.294;2023-12-22T01:14:13;100176.97;;;5.56;83.43
81372;BME280;70827;52.206;5.294;2023-12-22T01:16:39;100167.53;;;5.59;83.39
81372;BME280;70827;52.206;5.294;2023-12-22T01:19:04;100169.25;;;5.56;82.64
81372;BME280;70827;52.206;5.294;2023-12-22T01:21:30;100184.59;;;5.72;81.19
81372;BME280;70827;52.206;5.294;2023-12-22T01:23:58;100159.75;;;5.71;82.00
81372;BME280;70827;52.206;5.294;2023-12-22T01:26:24;100176.03;;;5.69;82.17
81372;BME280;70827;52.206;5.294;2023-12-22T01:28:49;100167.44;;;5.76;82.80
81372;BME280;70827;52.206;5.294;2023-12-22T01:31:15;100152.84;;;5.78;82.12
81372;BME280;70827;52.206;5.294;2023-12-22T01:33:41;100158.88;;;5.72;82.42
81372;BME280;70827;52.206;5.294;2023-12-22T01:36:06;100168.31;;;5.69;81.99
81372;BME280;70827;52.206;5.294;2023-12-22T01:38:35;100166.63;;;5.66;82.35
81372;BME280;70827;52.206;5.294;2023-12-22T01:41:03;100169.19;;;5.72;82.70
81372;BME280;70827;52.206;5.294;2023-12-22T01:43:29;100174.38;;;5.60;82.81
81372;BME280;70827;52.206;5.294;2023-12-22T01:45:56;100161.50;;;5.63;82.86
81372;BME280;70827;52.206;5.294;2023-12-22T01:48:22;100164.91;;;5.71;83.92
81372;BME280;70827;52.206;5.294;2023-12-22T01:50:47;100159.84;;;5.49;83.49
81372;BME280;70827;52.206;5.294;2023-12-22T01:53:13;100142.72;;;5.44;83.36
81372;BME280;70827;52.206;5.294;2023-12-22T01:55:39;100169.25;;;5.57;83.40
81372;BME280;70827;52.206;5.294;2023-12-22T01:58:08;100170.97;;;5.55;83.21
81372;BME280;70827;52.206;5.294;2023-12-22T02:00:34;100173.50;;;5.61;83.13
81372;BME280;70827;52.206;5.294;2023-12-22T02:02:59;100172.63;;;5.64;83.36
81372;BME280;70827;52.206;5.294;2023-12-22T02:05:25;100167.53;;;5.58;83.82
81372;BME280;70827;52.206;5.294;2023-12-22T02:07:51;100169.19;;;5.66;83.83
81372;BME280;70827;52.206;5.294;2023-12-22T02:10:17;100173.47;;;5.67;84.41
81372;BME280;70827;52.206;5.294;2023-12-22T02:12:42;100165.75;;;5.69;83.93
81372;BME280;70827;52.206;5.294;2023-12-22T02:15:11;100159.75;;;5.73;83.85
81372;BME280;70827;52.206;5.294;2023-12-22T02:17:42;100168.31;;;5.69;84.14
81372;BME280;70827;52.206;5.294;2023-12-22T02:20:09;100158.88;;;5.69;84.07
81372;BME280;70827;52.206;5.294;2023-12-22T02:22:37;100152.06;;;5.65;84.40
81372;BME280;70827;52.206;5.294;2023-12-22T02:25:04;100140.03;;;5.67;84.36
81372;BME280;70827;52.206;5.294;2023-12-22T02:27:35;100126.31;;;5.70;83.88
81372;BME280;70827;52.206;5.294;2023-12-22T02:30:07;100132.31;;;5.75;83.84
81372;BME280;70827;52.206;5.294;2023-12-22T02:32:36;100133.13;;;5.80;83.59
81372;BME280;70827;52.206;5.294;2023-12-22T02:35:04;100124.50;;;5.87;82.72
81372;BME280;70827;52.206;5.294;2023-12-22T02:37:32;100136.41;;;6.08;81.17
81372;BME280;70827;52.206;5.294;2023-12-22T02:40:03;100134.69;;;6.10;80.22
81372;BME280;70827;52.206;5.294;2023-12-22T02:42:29;100126.09;;;6.10;79.64
81372;BME280;70827;52.206;5.294;2023-12-22T02:44:55;100116.56;;;6.24;78.16
81372;BME280;70827;52.206;5.294;2023-12-22T02:47:21;100128.59;;;6.23;77.92
81372;BME280;70827;52.206;5.294;2023-12-22T02:49:46;100126.69;;;6.44;75.70
81372;BME280;70827;52.206;5.294;2023-12-22T02:52:12;100125.75;;;6.52;75.00
81372;BME280;70827;52.206;5.294;2023-12-22T02:54:37;100115.38;;;6.63;74.52
81372;BME280;70827;52.206;5.294;2023-12-22T02:57:06;100131.69;;;6.62;73.89
81372;BME280;70827;52.206;5.294;2023-12-22T02:59:32;100119.59;;;6.69;72.74
81372;BME280;70827;52.206;5.294;2023-12-22T03:01:57;100123.03;;;6.72;72.56
81372;BME280;70827;52.206;5.294;2023-12-22T03:04:23;100132.38;;;6.81;72.50
81372;BME280;70827;52.206;5.294;2023-12-22T03:06:49;100132.41;;;6.76;72.84
81372;BME280;70827;52.206;5.294;2023-12-22T03:09:14;100151.25;;;6.81;72.41
81372;BME280;70827;52.206;5.294;2023-12-22T03:11:40;100151.25;;;6.80;73.10
81372;BME280;70827;52.206;5.294;2023-12-22T03:14:08;100147.72;;;6.93;72.57
81372;BME280;70827;52.206;5.294;2023-12-22T03:16:34;100136.47;;;6.99;73.14
81372;BME280;70827;52.206;5.294;2023-12-22T03:18:59;100127.13;;;6.90;72.08
81372;BME280;70827;52.206;5.294;2023-12-22T03:21:25;100129.66;;;6.93;71.46
81372;BME280;70827;52.206;5.294;2023-12-22T03:23:51;100151.97;;;6.96;71.04
81372;BME280;70827;52.206;5.294;2023-12-22T03:26:16;100149.34;;;7.00;70.01
81372;BME280;70827;52.206;5.294;2023-12-22T03:28:42;100161.31;;;7.06;70.84
81372;BME280;70827;52.206;5.294;2023-12-22T03:31:10;100149.31;;;7.02;70.54
81372;BME280;70827;52.206;5.294;2023-12-22T03:33:36;100171.56;;;7.10;71.61
81372;BME280;70827;52.206;5.294;2023-12-22T03:36:02;100214.75;;;6.84;74.10
81372;BME280;70827;52.206;5.294;2023-12-22T03:38:27;100237.72;;;5.90;80.14
81372;BME280;70827;52.206;5.294;2023-12-22T03:40:53;100223.16;;;5.69;84.29
81372;BME280;70827;52.206;5.294;2023-12-22T03:43:18;100208.66;;;5.53;84.56
81372;BME280;70827;52.206;5.294;2023-12-22T03:45:44;100204.44;;;5.38;83.96
81372;BME280;70827;52.206;5.294;2023-12-22T03:48:12;100188.97;;;5.49;85.08
81372;BME280;70827;52.206;5.294;2023-12-22T03:50:38;100197.59;;;5.39;84.58
81372;BME280;70827;52.206;5.294;2023-12-22T03:53:03;100189.06;;;5.25;84.98
81372;BME280;70827;52.206;5.294;2023-12-22T03:55:29;100202.75;;;5.28;85.08
81372;BME280;70827;52.206;5.294;2023-12-22T03:57:55;100207.88;;;5.28;85.54
81372;BME280;70827;52.206;5.294;2023-12-22T04:00:20;100190.72;;;5.44;85.55
81372;BME280;70827;52.206;5.294;2023-12-22T04:02:46;100194.16;;;5.34;85.17
81372;BME280;70827;52.206;5.294;2023-12-22T04:05:14;100190.75;;;5.27;85.56
81372;BME280;70827;52.206;5.294;2023-12-22T04:07:40;100174.44;;;5.42;85.42
81372;BME280;70827;52.206;5.294;2023-12-22T04:10:07;100186.41;;;5.48;84.80
81372;BME280;70827;52.206;5.294;2023-12-22T04:12:32;100173.50;;;5.60;84.90
81372;BME280;70827;52.206;5.294;2023-12-22T04:14:58;100183.81;;;5.54;85.22
81372;BME280;70827;52.206;5.294;2023-12-22T04:17:23;100171.03;;;5.41;85.54
81372;BME280;70827;52.206;5.294;2023-12-22T04:19:49;100179.59;;;5.33;85.33
81372;BME280;70827;52.206;5.294;2023-12-22T04:22:17;100187.25;;;5.48;84.60
81372;BME280;70827;52.206;5.294;2023-12-22T04:24:43;100195.81;;;5.52;85.19
81372;BME280;70827;52.206;5.294;2023-12-22T04:27:08;100192.44;;;5.43;85.24
81372;BME280;70827;52.206;5.294;2023-12-22T04:29:34;100188.09;;;5.56;84.48
81372;BME280;70827;52.206;5.294;2023-12-22T04:32:00;100191.47;;;5.64;84.37
81372;BME280;70827;52.206;5.294;2023-12-22T04:34:25;100200.88;;;5.73;84.11
81372;BME280;70827;52.206;5.294;2023-12-22T04:36:51;100194.00;;;5.70;83.67
81372;BME280;70827;52.206;5.294;2023-12-22T04:39:19;100189.69;;;5.80;83.89
81372;BME280;70827;52.206;5.294;2023-12-22T04:41:45;100200.03;;;5.72;83.59
81372;BME280;70827;52.206;5.294;2023-12-22T04:44:10;100203.41;;;5.91;83.19
81372;BME280;70827;52.206;5.294;2023-12-22T04:46:36;100209.41;;;5.92;82.93
81372;BME280;70827;52.206;5.294;2023-12-22T04:49:01;100216.25;;;5.84;82.80
81372;BME280;70827;52.206;5.294;2023-12-22T04:51:27;100211.09;;;5.88;83.64
81372;BME280;70827;52.206;5.294;2023-12-22T04:53:53;100211.94;;;5.86;83.03
81372;BME280;70827;52.206;5.294;2023-12-22T04:56:21;100210.25;;;5.85;82.80
81372;BME280;70827;52.206;5.294;2023-12-22T04:58:46;100194.00;;;5.80;82.52
81372;BME280;70827;52.206;5.294;2023-12-22T05:01:12;100203.41;;;5.82;82.76
81372;BME280;70827;52.206;5.294;2023-12-22T05:03:38;100198.22;;;5.87;82.55
81372;BME280;70827;52.206;5.294;2023-12-22T05:06:04;100209.38;;;5.87;82.22
81372;BME280;70827;52.206;5.294;2023-12-22T05:08:29;100203.34;;;5.99;81.93
81372;BME280;70827;52.206;5.294;2023-12-22T05:10:55;100201.59;;;6.04;80.89
81372;BME280;70827;52.206;5.294;2023-12-22T05:13:23;100181.84;;;6.12;80.15
81372;BME280;70827;52.206;5.294;2023-12-22T05:15:49;100186.00;;;6.30;79.50
81372;BME280;70827;52.206;5.294;2023-12-22T05:18:14;100183.38;;;6.38;79.36
81372;BME280;70827;52.206;5.294;2023-12-22T05:20:40;100174.69;;;6.49;79.09
81372;BME280;70827;52.206;5.294;2023-12-22T05:23:05;100180.63;;;6.62;78.88
81372;BME280;70827;52.206;5.294;2023-12-22T05:25:31;100176.38;;;6.58;79.53
81372;BME280;70827;52.206;5.294;2023-12-22T05:27:57;100192.44;;;6.83;78.15
81372;BME280;70827;52.206;5.294;2023-12-22T05:30:25;100191.53;;;6.88;78.22
81372;BME280;70827;52.206;5.294;2023-12-22T05:32:51;100182.94;;;6.91;77.99
81372;BME280;70827;52.206;5.294;2023-12-22T05:35:16;100176.81;;;7.00;77.22
81372;BME280;70827;52.206;5.294;2023-12-22T05:37:42;100175.09;;;7.00;76.91
81372;BME280;70827;52.206;5.294;2023-12-22T05:40:08;100170.78;;;7.02;76.69
81372;BME280;70827;52.206;5.294;2023-12-22T05:42:34;100166.56;;;6.97;75.80
81372;BME280;70827;52.206;5.294;2023-12-22T05:44:59;100169.06;;;7.03;75.27
81372;BME280;70827;52.206;5.294;2023-12-22T05:47:28;100170.69;;;7.13;74.55
81372;BME280;70827;52.206;5.294;2023-12-22T05:49:53;100176.72;;;7.10;75.46
81372;BME280;70827;52.206;5.294;2023-12-22T05:52:19;100176.69;;;7.15;75.10
81372;BME280;70827;52.206;5.294;2023-12-22T05:54:44;100174.78;;;7.31;74.79
81372;BME280;70827;52.206;5.294;2023-12-22T05:57:10;100192.94;;;7.20;75.55
81372;BME280;70827;52.206;5.294;2023-12-22T05:59:36;100181.72;;;7.26;76.19
81372;BME280;70827;52.206;5.294;2023-12-22T06:02:02;100173.16;;;7.23;75.73
81372;BME280;70827;52.206;5.294;2023-12-22T06:04:30;100177.50;;;7.18;76.56
81372;BME280;70827;52.206;5.294;2023-12-22T06:06:55;100181.72;;;7.26;76.50
81372;BME280;70827;52.206;5.294;2023-12-22T06:09:21;100190.34;;;7.24;76.41
81372;BME280;70827;52.206;5.294;2023-12-22T06:11:47;100169.63;;;7.31;76.60
81372;BME280;70827;52.206;5.294;2023-12-22T06:14:12;100160.28;;;7.23;76.96
81372;BME280;70827;52.206;5.294;2023-12-22T06:16:38;100185.88;;;7.36;76.48
81372;BME280;70827;52.206;5.294;2023-12-22T06:19:04;100189.50;;;7.21;77.78
81372;BME280;70827;52.206;5.294;2023-12-22T06:21:32;100181.59;;;7.36;76.66
81372;BME280;70827;52.206;5.294;2023-12-22T06:23:58;100180.69;;;7.42;76.59
81372;BME280;70827;52.206;5.294;2023-12-22T06:26:23;100183.22;;;7.45;76.38
81372;BME280;70827;52.206;5.294;2023-12-22T06:28:49;100184.91;;;7.47;76.21
81372;BME280;70827;52.206;5.294;2023-12-22T06:31:18;100181.47;;;7.48;76.60
81372;BME280;70827;52.206;5.294;2023-12-22T06:33:44;100165.25;;;7.37;76.66
81372;BME280;70827;52.206;5.294;2023-12-22T06:36:17;100183.19;;;7.48;76.55
81372;BME280;70827;52.206;5.294;2023-12-22T06:38:46;100182.34;;;7.46;76.92
81372;BME280;70827;52.206;5.294;2023-12-22T06:41:18;100179.75;;;7.47;76.87
81372;BME280;70827;52.206;5.294;2023-12-22T06:43:44;100181.38;;;7.56;76.64
81372;BME280;70827;52.206;5.294;2023-12-22T06:46:14;100167.75;;;7.45;76.99
81372;BME280;70827;52.206;5.294;2023-12-22T06:48:40;100179.66;;;7.57;76.83
81372;BME280;70827;52.206;5.294;2023-12-22T06:51:05;100181.38;;;7.56;76.86
81372;BME280;70827;52.206;5.294;2023-12-22T06:53:31;100189.06;;;7.59;76.85
81372;BME280;70827;52.206;5.294;2023-12-22T06:55:59;100179.53;;;7.64;76.31
81372;BME280;70827;52.206;5.294;2023-12-22T06:58:25;100171.03;;;7.59;77.06
81372;BME280;70827;52.206;5.294;2023-12-22T07:00:50;100174.47;;;7.55;76.93
81372;BME280;70827;52.206;5.294;2023-12-22T07:03:16;100183.06;;;7.59;77.32
81372;BME280;70827;52.206;5.294;2023-12-22T07:05:41;100177.72;;;7.71;76.75
81372;BME280;70827;52.206;5.294;2023-12-22T07:08:07;100169.16;;;7.69;76.91
81372;BME280;70827;52.206;5.294;2023-12-22T07:10:33;100175.19;;;7.68;77.11
81372;BME280;70827;52.206;5.294;2023-12-22T07:13:01;100159.59;;;7.78;76.83
81372;BME280;70827;52.206;5.294;2023-12-22T07:15:27;100164.88;;;7.68;77.88
81372;BME280;70827;52.206;5.294;2023-12-22T07:17:53;100180.28;;;7.75;77.40
81372;BME280;70827;52.206;5.294;2023-12-22T07:20:18;100175.03;;;7.80;77.81
81372;BME280;70827;52.206;5.294;2023-12-22T07:22:44;100182.06;;;7.69;78.71
81372;BME280;70827;52.206;5.294;2023-12-22T07:25:10;100181.09;;;7.77;78.25
81372;BME280;70827;52.206;5.294;2023-12-22T07:27:35;100175.88;;;7.82;78.85
81372;BME280;70827;52.206;5.294;2023-12-22T07:30:05;100188.03;;;7.74;79.13
81372;BME280;70827;52.206;5.294;2023-12-22T07:32:31;100182.88;;;7.74;79.16
81372;BME280;70827;52.206;5.294;2023-12-22T07:34:56;100169.84;;;7.83;78.70
81372;BME280;70827;52.206;5.294;2023-12-22T07:37:22;100156.06;;;7.84;79.26
81372;BME280;70827;52.206;5.294;2023-12-22T07:39:47;100167.28;;;7.81;79.27
81372;BME280;70827;52.206;5.294;2023-12-22T07:42:13;100194.88;;;7.76;80.29
81372;BME280;70827;52.206;5.294;2023-12-22T07:44:39;100171.06;;;7.56;80.77
81372;BME280;70827;52.206;5.294;2023-12-22T07:47:07;100171.31;;;7.33;83.69
81372;BME280;70827;52.206;5.294;2023-12-22T07:49:32;100161.91;;;7.31;85.14
81372;BME280;70827;52.206;5.294;2023-12-22T07:51:58;100152.72;;;7.04;85.89
81372;BME280;70827;52.206;5.294;2023-12-22T07:54:24;100168.09;;;7.13;86.29
81372;BME280;70827;52.206;5.294;2023-12-22T07:56:49;100165.66;;;6.99;87.45
81372;BME280;70827;52.206;5.294;2023-12-22T07:59:15;100183.72;;;6.98;88.15
81372;BME280;70827;52.206;5.294;2023-12-22T08:01:40;100187.13;;;7.01;88.31
81372;BME280;70827;52.206;5.294;2023-12-22T08:04:09;100193.03;;;7.11;88.46
81372;BME280;70827;52.206;5.294;2023-12-22T08:06:34;100193.03;;;7.12;88.83
81372;BME280;70827;52.206;5.294;2023-12-22T08:09:00;100188.63;;;7.20;88.26
81372;BME280;70827;52.206;5.294;2023-12-22T08:11:26;100181.75;;;7.24;88.72
81372;BME280;70827;52.206;5.294;2023-12-22T08:13:51;100181.72;;;7.26;88.84
81372;BME280;70827;52.206;5.294;2023-12-22T08:16:17;100187.69;;;7.31;88.65
81372;BME280;70827;52.206;5.294;2023-12-22T08:18:43;100178.09;;;7.43;87.63
81372;BME280;70827;52.206;5.294;2023-12-22T08:21:11;100172.97;;;7.39;87.91
81372;BME280;70827;52.206;5.294;2023-12-22T08:23:36;100179.03;;;7.33;88.77
81372;BME280;70827;52.206;5.294;2023-12-22T08:26:02;100163.56;;;7.35;88.08
81372;BME280;70827;52.206;5.294;2023-12-22T08:28:28;100166.13;;;7.35;88.06
81372;BME280;70827;52.206;5.294;2023-12-22T08:30:53;100138.75;;;7.26;88.54
81372;BME280;70827;52.206;5.294;2023-12-22T08:33:19;100139.59;;;7.27;89.17
81372;BME280;70827;52.206;5.294;2023-12-22T08:35:45;100149.03;;;7.28;89.33
81372;BME280;70827;52.206;5.294;2023-12-22T08:38:13;100148.19;;;7.29;89.64
81372;BME280;70827;52.206;5.294;2023-12-22T08:40:39;100135.28;;;7.29;89.95
81372;BME280;70827;52.206;5.294;2023-12-22T08:43:04;100140.34;;;7.36;90.29
81372;BME280;70827;52.206;5.294;2023-12-22T08:45:30;100137.66;;;7.45;89.63
81372;BME280;70827;52.206;5.294;2023-12-22T08:47:56;100134.13;;;7.52;89.92
81372;BME280;70827;52.206;5.294;2023-12-22T08:50:21;100147.03;;;7.51;89.95
81372;BME280;70827;52.206;5.294;2023-12-22T08:52:47;100142.44;;;7.74;90.43
81372;BME280;70827;52.206;5.294;2023-12-22T08:55:15;100133.03;;;7.70;89.96
81372;BME280;70827;52.206;5.294;2023-12-22T08:57:41;100133.06;;;7.67;90.23
81372;BME280;70827;52.206;5.294;2023-12-22T09:00:07;100149.25;;;7.80;89.78
81372;BME280;70827;52.206;5.294;2023-12-22T09:02:33;100151.81;;;7.80;89.79
81372;BME280;70827;52.206;5.294;2023-12-22T09:04:59;100145.81;;;7.79;89.77
81372;BME280;70827;52.206;5.294;2023-12-22T09:07:24;100146.53;;;7.88;89.58
81372;BME280;70827;52.206;5.294;2023-12-22T09:09:50;100131.09;;;7.84;89.90
81372;BME280;70827;52.206;5.294;2023-12-22T09:12:18;100140.50;;;7.89;89.51
81372;BME280;70827;52.206;5.294;2023-12-22T09:14:44;100157.72;;;7.88;89.45
81372;BME280;70827;52.206;5.294;2023-12-22T09:17:09;100143.97;;;7.88;88.60
81372;BME280;70827;52.206;5.294;2023-12-22T09:19:35;100148.22;;;7.93;88.71
81372;BME280;70827;52.206;5.294;2023-12-22T09:22:00;100149.50;;;7.62;86.83
81372;BME280;70827;52.206;5.294;2023-12-22T09:24:26;100143.47;;;7.61;88.35
81372;BME280;70827;52.206;5.294;2023-12-22T09:26:52;100147.81;;;7.59;87.61
81372;BME280;70827;52.206;5.294;2023-12-22T09:29:20;100149.75;;;7.40;87.52
81372;BME280;70827;52.206;5.294;2023-12-22T09:31:45;100144.53;;;7.45;86.92
81372;BME280;70827;52.206;5.294;2023-12-22T09:34:11;100133.31;;;7.49;86.94
81372;BME280;70827;52.206;5.294;2023-12-22T09:36:37;100140.25;;;7.45;86.77
81372;BME280;70827;52.206;5.294;2023-12-22T09:39:02;100143.66;;;7.46;86.90
81372;BME280;70827;52.206;5.294;2023-12-22T09:41:28;100140.25;;;7.45;86.99
81372;BME280;70827;52.206;5.294;2023-12-22T09:43:54;100154.06;;;7.41;88.24
81372;BME280;70827;52.206;5.294;2023-12-22T09:46:23;100150.19;;;7.71;89.55
81372;BME280;70827;52.206;5.294;2023-12-22T09:48:51;100144.50;;;7.48;89.36
81372;BME280;70827;52.206;5.294;2023-12-22T09:51:18;100145.22;;;7.59;89.78
81372;BME280;70827;52.206;5.294;2023-12-22T09:53:44;100152.03;;;7.63;90.07
81372;BME280;70827;52.206;5.294;2023-12-22T09:56:10;100151.94;;;7.71;90.12
81372;BME280;70827;52.206;5.294;2023-12-22T09:58:36;100139.81;;;7.79;89.84
81372;BME280;70827;52.206;5.294;2023-12-22T10:01:03;100149.78;;;8.02;89.50
81372;BME280;70827;52.206;5.294;2023-12-22T10:03:32;100147.03;;;8.14;89.42
81372;BME280;70827;52.206;5.294;2023-12-22T10:05:58;100148.78;;;8.12;89.02
81372;BME280;70827;52.206;5.294;2023-12-22T10:08:24;100152.94;;;8.24;89.14
81372;BME280;70827;52.206;5.294;2023-12-22T10:10:50;100166.56;;;8.32;88.24
81372;BME280;70827;52.206;5.294;2023-12-22T10:13:16;100152.78;;;8.31;88.15
81372;BME280;70827;52.206;5.294;2023-12-22T10:15:41;100154.44;;;8.40;87.82
81372;BME280;70827;52.206;5.294;2023-12-22T10:18:09;100163.03;;;8.40;87.85
81372;BME280;70827;52.206;5.294;2023-12-22T10:20:37;100163.03;;;8.39;88.34
81372;BME280;70827;52.206;5.294;2023-12-22T10:23:03;100164.56;;;8.51;87.14
81372;BME280;70827;52.206;5.294;2023-12-22T10:25:29;100166.38;;;8.46;87.96
81372;BME280;70827;52.206;5.294;2023-12-22T10:27:55;100155.03;;;8.54;88.10
81372;BME280;70827;52.206;5.294;2023-12-22T10:30:21;100157.84;;;8.42;88.45
81372;BME280;70827;52.206;5.294;2023-12-22T10:32:47;100163.78;;;8.46;88.32
81372;BME280;70827;52.206;5.294;2023-12-22T10:35:12;100163.59;;;8.58;87.17
81372;BME280;70827;52.206;5.294;2023-12-22T10:37:41;100182.63;;;8.52;88.61
81372;BME280;70827;52.206;5.294;2023-12-22T10:40:08;100176.78;;;8.39;89.59
81372;BME280;70827;52.206;5.294;2023-12-22T10:42:34;100163.03;;;8.39;89.37
81372;BME280;70827;52.206;5.294;2023-12-22T10:45:00;100163.84;;;8.42;90.21
81372;BME280;70827;52.206;5.294;2023-12-22T10:47:26;100155.97;;;8.50;88.86
81372;BME280;70827;52.206;5.294;2023-12-22T10:49:53;100165.38;;;8.53;88.99
81372;BME280;70827;52.206;5.294;2023-12-22T10:52:19;100165.34;;;8.56;87.95
81372;BME280;70827;52.206;5.294;2023-12-22T10:54:48;100169.50;;;8.64;87.46
81372;BME280;70827;52.206;5.294;2023-12-22T10:57:16;100171.28;;;8.62;87.67
81372;BME280;70827;52.206;5.294;2023-12-22T10:59:45;100149.72;;;8.63;87.72
81372;BME280;70827;52.206;5.294;2023-12-22T11:02:12;100142.91;;;8.59;87.58
81372;BME280;70827;52.206;5.294;2023-12-22T11:04:40;100150.50;;;8.67;87.30
81372;BME280;70827;52.206;5.294;2023-12-22T11:07:06;100150.38;;;8.76;86.91
81372;BME280;70827;52.206;5.294;2023-12-22T11:09:33;100128.06;;;8.70;85.42
81372;BME280;70827;52.206;5.294;2023-12-22T11:12:04;100141.72;;;8.79;85.52
81372;BME280;70827;52.206;5.294;2023-12-22T11:14:31;100158.03;;;8.81;85.90
81372;BME280;70827;52.206;5.294;2023-12-22T11:16:58;100143.41;;;8.80;85.07
81372;BME280;70827;52.206;5.294;2023-12-22T11:19:25;100136.41;;;8.85;84.95
81372;BME280;70827;52.206;5.294;2023-12-22T11:21:52;100139.06;;;8.82;84.70
81372;BME280;70827;52.206;5.294;2023-12-22T11:24:18;100135.53;;;8.86;84.40
81372;BME280;70827;52.206;5.294;2023-12-22T11:26:45;100127.00;;;8.82;84.96
81372;BME280;70827;52.206;5.294;2023-12-22T11:29:13;100133.06;;;8.80;85.10
81372;BME280;70827;52.206;5.294;2023-12-22T11:31:39;100139.00;;;8.85;85.46
81372;BME280;70827;52.206;5.294;2023-12-22T11:34:06;100149.25;;;8.89;85.36
81372;BME280;70827;52.206;5.294;2023-12-22T11:36:32;100138.94;;;8.88;85.38
81372;BME280;70827;52.206;5.294;2023-12-22T11:38:59;100133.75;;;8.91;84.16
81372;BME280;70827;52.206;5.294;2023-12-22T11:41:26;100120.78;;;8.92;84.69
81372;BME280;70827;52.206;5.294;2023-12-22T11:43:53;100137.19;;;8.90;85.67
81372;BME280;70827;52.206;5.294;2023-12-22T11:46:22;100101.84;;;8.92;84.67
81372;BME280;70827;52.206;5.294;2023-12-22T11:48:48;100116.50;;;8.91;84.49
81372;BME280;70827;52.206;5.294;2023-12-22T11:51:14;100111.16;;;8.99;83.62
81372;BME280;70827;52.206;5.294;2023-12-22T11:53:41;100119.56;;;9.12;82.75
81372;BME280;70827;52.206;5.294;2023-12-22T11:56:07;100104.84;;;9.14;82.10
81372;BME280;70827;52.206;5.294;2023-12-22T11:58:34;100098.13;;;9.05;82.67
81372;BME280;70827;52.206;5.294;2023-12-22T12:01:01;100096.34;;;9.09;82.50
81372;BME280;70827;52.206;5.294;2023-12-22T12:03:29;100095.53;;;9.05;83.39
81372;BME280;70827;52.206;5.294;2023-12-22T12:06:10;100098.84;;;9.13;82.62
81372;BME280;70827;52.206;5.294;2023-12-22T12:08:35;100097.97;;;9.13;82.95
81372;BME280;70827;52.206;5.294;2023-12-22T12:11:01;100088.50;;;9.13;82.86
81372;BME280;70827;52.206;5.294;2023-12-22T12:13:27;100082.34;;;9.19;82.85
81372;BME280;70827;52.206;5.294;2023-12-22T12:15:53;100096.88;;;9.26;82.35
81372;BME280;70827;52.206;5.294;2023-12-22T12:18:21;100081.34;;;9.26;82.90
81372;BME280;70827;52.206;5.294;2023-12-22T12:20:50;100094.22;;;9.29;81.77
81372;BME280;70827;52.206;5.294;2023-12-22T12:23:16;100084.69;;;9.31;82.01
81372;BME280;70827;52.206;5.294;2023-12-22T12:25:42;100083.03;;;9.27;82.22
81372;BME280;70827;52.206;5.294;2023-12-22T12:28:08;100072.56;;;9.33;81.82
81372;BME280;70827;52.206;5.294;2023-12-22T12:30:35;100086.41;;;9.30;82.80
81372;BME280;70827;52.206;5.294;2023-12-22T12:33:06;100067.38;;;9.33;82.17
81372;BME280;70827;52.206;5.294;2023-12-22T12:35:32;100097.53;;;9.34;82.66
81372;BME280;70827;52.206;5.294;2023-12-22T12:38:01;100092.16;;;9.45;79.68
81372;BME280;70827;52.206;5.294;2023-12-22T12:40:28;100057.91;;;9.33;81.41
81372;BME280;70827;52.206;5.294;2023-12-22T12:42:53;100063.81;;;9.39;81.50
81372;BME280;70827;52.206;5.294;2023-12-22T12:45:22;100079.38;;;9.37;82.01
81372;BME280;70827;52.206;5.294;2023-12-22T12:47:54;100092.22;;;9.42;81.30
81372;BME280;70827;52.206;5.294;2023-12-22T12:50:21;100088.72;;;9.44;81.43
81372;BME280;70827;52.206;5.294;2023-12-22T12:52:47;100074.94;;;9.44;81.25
81372;BME280;70827;52.206;5.294;2023-12-22T12:55:16;100073.28;;;9.41;81.88